createdAt,value
2023-06-20T00:02:03.245Z,10.83
2023-06-20T00:05:06.377Z,11.50
2023-06-20T00:08:09.581Z,10.47
2023-06-20T00:11:12.312Z,12.47
2023-06-20T00:14:16.395Z,14.50
2023-06-20T00:17:19.155Z,12.27
2023-06-20T00:20:22.034Z,13.97
2023-06-20T00:23:26.212Z,14.40
2023-06-20T00:26:29.015Z,13.47
2023-06-20T00:29:33.182Z,12.77
2023-06-20T00:32:35.998Z,17.73
2023-06-20T00:35:39.148Z,12.33
2023-06-20T00:38:41.849Z,16.40
2023-06-20T00:41:44.588Z,13.87
2023-06-20T00:44:50.883Z,13.43
2023-06-20T00:47:54.789Z,15.47
2023-06-20T00:50:58.604Z,13.77
2023-06-20T00:54:08.037Z,10.37
2023-06-20T00:57:11.553Z,13.37
2023-06-20T01:00:19.300Z,11.83
2023-06-20T01:03:23.630Z,11.57
2023-06-20T01:06:36.320Z,21.83
2023-06-20T01:09:47.951Z,15.83
2023-06-20T01:12:55.722Z,17.07
2023-06-20T01:16:07.610Z,17.97
2023-06-20T01:19:21.838Z,13.40
2023-06-20T01:22:45.390Z,16.03
2023-06-20T01:25:56.843Z,18.83
2023-06-20T01:29:04.283Z,17.57
2023-06-20T01:32:13.426Z,13.00
2023-06-20T01:35:23.948Z,15.53
2023-06-20T01:38:31.666Z,20.43
2023-06-20T01:41:38.854Z,20.13
2023-06-20T01:44:42.798Z,12.80
2023-06-20T01:47:48.492Z,21.83
2023-06-20T01:50:57.058Z,15.37
2023-06-20T01:54:04.697Z,15.03
2023-06-20T01:57:08.859Z,16.17
2023-06-20T02:00:13.766Z,17.97
2023-06-20T02:03:18.804Z,16.00
2023-06-20T02:06:22.509Z,18.57
2023-06-20T02:09:27.024Z,16.27
2023-06-20T02:12:30.562Z,15.83
2023-06-20T02:15:35.629Z,14.13
2023-06-20T02:18:38.355Z,12.37
2023-06-20T02:21:44.211Z,14.20
2023-06-20T02:24:52.988Z,13.60
2023-06-20T02:27:57.276Z,14.70
2023-06-20T02:31:01.126Z,17.10
2023-06-20T02:34:10.801Z,18.07
2023-06-20T02:37:16.271Z,13.27
2023-06-20T02:40:25.771Z,17.23
2023-06-20T02:43:30.753Z,13.20
2023-06-20T02:46:38.701Z,17.40
2023-06-20T02:49:47.710Z,16.43
2023-06-20T02:53:02.071Z,17.53
2023-06-20T02:56:12.398Z,16.60
2023-06-20T02:59:17.158Z,21.00
2023-06-20T03:02:21.289Z,17.80
2023-06-20T03:05:25.903Z,17.23
2023-06-20T03:08:31.421Z,23.30
2023-06-20T03:11:35.801Z,18.17
2023-06-20T03:14:38.500Z,17.50
2023-06-20T03:17:41.295Z,17.97
2023-06-20T03:20:44.987Z,20.10
2023-06-20T03:23:51.500Z,15.20
2023-06-20T03:26:55.566Z,12.63
2023-06-20T03:30:02.252Z,14.50
2023-06-20T03:33:07.148Z,15.63
2023-06-20T03:36:11.302Z,8.60
2023-06-20T03:39:15.248Z,15.47
2023-06-20T03:42:19.346Z,19.63
2023-06-20T03:45:22.096Z,16.80
2023-06-20T03:48:24.826Z,16.37
2023-06-20T03:51:27.552Z,20.13
2023-06-20T03:54:30.260Z,19.00
2023-06-20T03:57:34.322Z,21.63
2023-06-20T04:00:37.104Z,19.90
2023-06-20T04:03:40.328Z,19.33
2023-06-20T04:06:43.035Z,16.60
2023-06-20T04:09:53.523Z,18.80
2023-06-20T04:12:57.629Z,17.07
2023-06-20T04:16:01.994Z,16.10
2023-06-20T04:19:07.502Z,13.87
2023-06-20T04:22:10.611Z,12.67
2023-06-20T04:25:13.832Z,14.27
2023-06-20T04:28:18.812Z,12.40
2023-06-20T04:31:21.792Z,15.30
2023-06-20T04:34:28.782Z,14.27
2023-06-20T04:37:34.573Z,17.80
2023-06-20T04:40:37.337Z,19.23
2023-06-20T04:43:46.053Z,21.27
2023-06-20T04:46:51.214Z,19.37
2023-06-20T04:49:53.966Z,20.33
2023-06-20T04:52:56.708Z,17.73
2023-06-20T04:55:59.666Z,16.13
2023-06-20T04:59:03.732Z,22.47
2023-06-20T05:02:07.578Z,15.77
2023-06-20T05:05:10.681Z,13.47
2023-06-20T05:08:21.171Z,13.70
2023-06-20T05:11:23.991Z,14.90
2023-06-20T05:14:30.548Z,13.60
2023-06-20T05:17:33.333Z,13.93
2023-06-20T05:20:36.071Z,18.03
2023-06-20T05:23:38.821Z,15.10
2023-06-20T05:26:41.733Z,14.57
2023-06-20T05:29:46.916Z,12.53
2023-06-20T05:32:53.904Z,14.10
2023-06-20T05:35:58.746Z,11.33
2023-06-20T05:39:02.073Z,11.53
2023-06-20T05:42:05.453Z,9.03
2023-06-20T05:45:10.590Z,9.83
2023-06-20T05:48:13.384Z,9.00
2023-06-20T05:51:16.607Z,9.87
2023-06-20T05:54:19.433Z,8.07
2023-06-20T05:57:22.179Z,10.17
2023-06-20T06:00:26.730Z,8.13
2023-06-20T06:03:31.220Z,13.30
2023-06-20T06:06:34.039Z,14.00
2023-06-20T06:09:36.756Z,12.03
2023-06-20T06:12:41.790Z,12.87
2023-06-20T06:15:59.193Z,8.47
2023-06-20T06:19:03.651Z,9.47
2023-06-20T06:22:07.747Z,12.77
2023-06-20T06:25:11.117Z,8.73
2023-06-20T06:28:13.916Z,9.13
2023-06-20T06:31:28.398Z,11.90
2023-06-20T06:34:31.239Z,9.33
2023-06-20T06:37:34.691Z,9.13
2023-06-20T06:40:40.590Z,9.37
2023-06-20T06:43:43.438Z,11.40
2023-06-20T06:46:47.591Z,11.87
2023-06-20T06:49:50.354Z,10.20
2023-06-20T06:52:53.132Z,10.10
2023-06-20T06:55:56.008Z,10.10
2023-06-20T06:59:02.426Z,8.47
2023-06-20T07:02:07.323Z,9.13
2023-06-20T07:05:10.492Z,12.13
2023-06-20T07:08:13.326Z,9.90
2023-06-20T07:11:16.239Z,9.47
2023-06-20T07:14:27.552Z,9.70
2023-06-20T07:17:31.762Z,9.77
2023-06-20T07:20:34.782Z,12.03
2023-06-20T07:23:37.629Z,10.57
2023-06-20T07:26:40.454Z,11.83
2023-06-20T07:29:43.238Z,11.90
2023-06-20T07:32:49.421Z,11.93
2023-06-20T07:35:52.289Z,11.33
2023-06-20T07:38:55.235Z,13.70
2023-06-20T07:41:58.021Z,13.20
2023-06-20T07:45:00.837Z,11.63
2023-06-20T07:48:05.268Z,12.70
2023-06-20T07:51:08.068Z,13.03
2023-06-20T07:54:10.800Z,11.70
2023-06-20T07:57:13.497Z,10.37
2023-06-20T08:00:20.264Z,10.10
2023-06-20T08:03:26.221Z,11.23
2023-06-20T08:06:31.342Z,12.73
2023-06-20T08:09:34.040Z,13.50
2023-06-20T08:12:36.936Z,12.73
2023-06-20T08:15:39.689Z,12.03
2023-06-20T08:18:43.947Z,10.77
2023-06-20T08:21:54.044Z,10.53
2023-06-20T08:24:56.914Z,12.20
2023-06-20T08:28:13.778Z,12.23
2023-06-20T08:31:17.669Z,15.53
2023-06-20T08:34:21.951Z,12.10
2023-06-20T08:37:24.937Z,10.33
2023-06-20T08:40:29.832Z,9.07
2023-06-20T08:43:36.394Z,12.23
2023-06-20T08:46:40.490Z,11.30
2023-06-20T08:49:53.673Z,11.90
2023-06-20T08:53:02.018Z,10.53
2023-06-20T08:56:05.438Z,8.63
2023-06-20T08:59:10.600Z,11.30
2023-06-20T09:02:17.088Z,11.33
2023-06-20T09:05:24.348Z,10.47
2023-06-20T09:08:36.113Z,9.50
2023-06-20T09:11:38.998Z,12.23
2023-06-20T09:14:42.513Z,9.00
2023-06-20T09:17:52.282Z,11.67
2023-06-20T09:21:04.703Z,9.30
2023-06-20T09:24:09.120Z,8.67
2023-06-20T09:27:11.863Z,10.33
2023-06-20T09:30:16.132Z,11.13
2023-06-20T09:33:19.166Z,8.10
2023-06-20T09:36:23.584Z,9.63
2023-06-20T09:39:26.286Z,10.00
2023-06-20T09:42:29.759Z,10.17
2023-06-20T09:45:32.489Z,8.90
2023-06-20T09:48:37.903Z,9.50
2023-06-20T09:51:46.589Z,9.77
2023-06-20T09:54:57.418Z,10.35
2023-06-20T09:58:07.495Z,14.67
2023-06-20T10:01:14.624Z,9.95
2023-06-20T10:04:18.735Z,9.05
2023-06-20T10:07:24.025Z,11.85
2023-06-20T10:10:26.962Z,8.93
2023-06-20T10:13:32.555Z,10.02
2023-06-20T10:16:35.641Z,11.65
2023-06-20T10:19:49.300Z,9.77
2023-06-20T10:23:11.608Z,9.82
2023-06-20T10:26:14.349Z,7.57
2023-06-20T10:29:17.124Z,7.82
2023-06-20T10:32:19.826Z,10.25
2023-06-20T10:35:24.495Z,9.93
2023-06-20T10:38:29.718Z,8.23
2023-06-20T10:41:35.050Z,9.23
2023-06-20T10:44:37.795Z,12.15
2023-06-20T10:47:40.672Z,7.88
2023-06-20T10:50:43.622Z,8.63
2023-06-20T10:53:48.008Z,8.13
2023-06-20T10:56:53.936Z,8.38
2023-06-20T10:59:57.067Z,7.38
2023-06-20T11:02:59.906Z,7.28
2023-06-20T11:06:03.114Z,7.05
2023-06-20T11:09:17.221Z,9.73
2023-06-20T11:12:21.536Z,8.70
2023-06-20T11:15:29.654Z,8.38
2023-06-20T11:18:32.413Z,9.98
2023-06-20T11:21:35.679Z,7.20
2023-06-20T11:24:43.836Z,6.93
2023-06-20T11:27:46.525Z,7.32
2023-06-20T11:30:49.302Z,7.20
2023-06-20T11:34:03.634Z,8.68
2023-06-20T11:37:07.300Z,11.13
2023-06-20T11:40:14.713Z,9.98
2023-06-20T11:43:24.929Z,8.35
2023-06-20T11:46:28.118Z,7.60
2023-06-20T11:49:31.621Z,7.28
2023-06-20T11:52:34.400Z,9.38
2023-06-20T11:55:49.098Z,7.07
2023-06-20T11:58:51.811Z,7.05
2023-06-20T12:01:54.675Z,7.25
2023-06-20T12:04:58.700Z,8.80
2023-06-20T12:08:02.017Z,11.25
2023-06-20T12:11:07.066Z,9.23
2023-06-20T12:14:09.840Z,7.60
2023-06-20T12:17:12.566Z,8.55
2023-06-20T12:20:32.793Z,10.15
2023-06-20T12:23:37.353Z,6.70
2023-06-20T12:26:43.353Z,11.48
2023-06-20T12:29:46.993Z,6.45
2023-06-20T12:32:49.814Z,9.25
2023-06-20T12:35:52.866Z,6.18
2023-06-20T12:38:55.575Z,6.80
2023-06-20T12:41:59.733Z,8.73
2023-06-20T12:45:03.231Z,6.10
2023-06-20T12:48:06.475Z,6.63
2023-06-20T12:51:09.443Z,7.35
2023-06-20T12:54:12.998Z,6.65
2023-06-20T12:57:19.429Z,7.28
2023-06-20T13:00:22.510Z,6.88
2023-06-20T13:03:25.488Z,7.07
2023-06-20T13:06:28.861Z,7.55
2023-06-20T13:09:31.751Z,6.05
2023-06-20T13:12:36.541Z,6.95
2023-06-20T13:15:39.636Z,6.90
2023-06-20T13:18:42.383Z,6.65
2023-06-20T13:21:45.107Z,8.90
2023-06-20T13:24:49.189Z,7.15
2023-06-20T13:27:55.958Z,7.03
2023-06-20T13:30:59.185Z,6.88
2023-06-20T13:34:02.070Z,9.65
2023-06-20T13:37:05.646Z,7.20
2023-06-20T13:40:10.444Z,6.97
2023-06-20T13:43:14.592Z,7.28
2023-06-20T13:46:17.348Z,6.97
2023-06-20T13:49:20.504Z,7.18
2023-06-20T13:52:24.403Z,7.25
2023-06-20T13:55:31.841Z,6.40
2023-06-20T13:58:36.115Z,9.77
2023-06-20T14:01:41.000Z,6.55
2023-06-20T14:04:44.944Z,6.53
2023-06-20T14:07:48.552Z,6.88
2023-06-20T14:10:51.546Z,7.43
2023-06-20T14:13:55.630Z,7.30
2023-06-20T14:16:58.867Z,6.70
2023-06-20T14:20:01.997Z,9.27
2023-06-20T14:23:05.003Z,7.78
2023-06-20T14:26:07.732Z,8.10
2023-06-20T14:29:11.990Z,7.85
2023-06-20T14:32:14.800Z,7.07
2023-06-20T14:35:17.571Z,7.82
2023-06-20T14:38:20.422Z,7.07
2023-06-20T14:41:23.748Z,9.10
2023-06-20T14:44:28.914Z,7.00
2023-06-20T14:47:31.850Z,7.38
2023-06-20T14:50:47.638Z,8.68
2023-06-20T14:53:51.531Z,7.47
2023-06-20T14:56:54.265Z,9.25
2023-06-20T14:59:58.358Z,8.00
2023-06-20T15:03:01.297Z,8.00
2023-06-20T15:06:07.224Z,8.07
2023-06-20T15:09:09.981Z,7.90
2023-06-20T15:12:14.128Z,9.40
2023-06-20T15:15:18.280Z,9.05
2023-06-20T15:18:21.170Z,9.05
2023-06-20T15:21:23.965Z,9.00
2023-06-20T15:24:26.822Z,11.85
2023-06-20T15:27:29.569Z,8.57
2023-06-20T15:30:34.258Z,8.88
2023-06-20T15:33:37.009Z,8.32
2023-06-20T15:36:39.765Z,7.35
2023-06-20T15:39:42.661Z,7.63
2023-06-20T15:42:45.546Z,7.55
2023-06-20T15:45:49.894Z,10.77
2023-06-20T15:48:58.616Z,8.18
2023-06-20T15:52:02.130Z,8.27
2023-06-20T15:55:05.377Z,12.00
2023-06-20T15:58:08.744Z,9.80
2023-06-20T16:01:13.642Z,8.25
2023-06-20T16:04:18.429Z,9.05
2023-06-20T16:07:23.814Z,8.43
2023-06-20T16:10:26.924Z,9.13
2023-06-20T16:13:30.981Z,8.15
2023-06-20T16:16:35.132Z,8.82
2023-06-20T16:19:38.175Z,7.90
2023-06-20T16:22:41.176Z,10.80
2023-06-20T16:25:44.107Z,9.23
2023-06-20T16:28:46.836Z,9.00
2023-06-20T16:31:50.907Z,8.55
2023-06-20T16:34:53.668Z,14.32
2023-06-20T16:37:59.475Z,6.93
2023-06-20T16:41:04.123Z,10.85
2023-06-20T16:44:06.840Z,10.20
2023-06-20T16:47:11.284Z,14.73
2023-06-20T16:50:14.092Z,15.85
2023-06-20T16:53:16.849Z,10.30
2023-06-20T16:56:21.658Z,8.73
2023-06-20T16:59:25.824Z,8.45
2023-06-20T17:02:30.392Z,11.93
2023-06-20T17:05:36.509Z,12.85
2023-06-20T17:08:39.255Z,8.63
2023-06-20T17:11:42.052Z,10.75
2023-06-20T17:14:45.971Z,10.40
2023-06-20T17:17:50.309Z,10.50
2023-06-20T17:20:53.144Z,7.93
2023-06-20T17:23:57.859Z,7.93
2023-06-20T17:27:00.649Z,8.95
2023-06-20T17:30:03.766Z,8.13
2023-06-20T17:33:08.041Z,10.45
2023-06-20T17:36:10.893Z,9.68
2023-06-20T17:39:13.608Z,10.05
2023-06-20T17:42:16.383Z,8.48
2023-06-20T17:45:19.263Z,12.68
2023-06-20T17:48:23.377Z,9.48
2023-06-20T17:51:26.091Z,10.23
2023-06-20T17:54:29.537Z,9.15
2023-06-20T17:57:36.072Z,9.48
2023-06-20T18:00:48.447Z,8.95
2023-06-20T18:03:52.876Z,10.00
2023-06-20T18:06:55.822Z,11.15
2023-06-20T18:09:58.646Z,11.65
2023-06-20T18:13:02.196Z,15.65
2023-06-20T18:16:05.431Z,12.70
2023-06-20T18:19:09.649Z,11.10
2023-06-20T18:22:12.874Z,15.63
2023-06-20T18:25:15.671Z,13.00
2023-06-20T18:28:18.947Z,10.40
2023-06-20T18:31:21.787Z,14.70
2023-06-20T18:34:26.022Z,11.80
2023-06-20T18:37:30.584Z,11.23
2023-06-20T18:40:33.386Z,12.07
2023-06-20T18:43:36.292Z,10.10
2023-06-20T18:46:39.044Z,10.15
2023-06-20T18:49:43.370Z,10.63
2023-06-20T18:52:46.749Z,9.73
2023-06-20T18:55:50.484Z,11.00
2023-06-20T18:58:56.483Z,11.05
2023-06-20T19:01:59.267Z,10.73
2023-06-20T19:05:04.178Z,11.63
2023-06-20T19:08:07.755Z,11.48
2023-06-20T19:11:10.683Z,10.93
2023-06-20T19:14:13.501Z,10.35
2023-06-20T19:17:16.177Z,14.27
2023-06-20T19:20:20.727Z,10.57
2023-06-20T19:23:23.466Z,13.07
2023-06-20T19:26:26.402Z,12.25
2023-06-20T19:29:29.138Z,11.93
2023-06-20T19:32:32.161Z,13.32
2023-06-20T19:35:36.252Z,13.35
2023-06-20T19:38:38.987Z,9.15
2023-06-20T19:41:41.737Z,12.15
2023-06-20T19:44:44.530Z,11.27
2023-06-20T19:47:47.305Z,12.23
2023-06-20T19:50:51.483Z,12.77
2023-06-20T19:53:54.361Z,15.00
2023-06-20T19:56:57.086Z,10.63
2023-06-20T19:59:59.982Z,11.05
2023-06-20T20:03:07.707Z,18.52
2023-06-20T20:06:13.868Z,12.98
2023-06-20T20:09:17.086Z,12.50
2023-06-20T20:12:20.057Z,11.05
2023-06-20T20:15:23.205Z,5.07
2023-06-20T20:18:29.374Z,5.10
2023-06-20T20:21:33.823Z,8.30
2023-06-20T20:24:36.659Z,8.80
2023-06-20T20:27:41.506Z,9.07
2023-06-20T20:30:44.696Z,7.50
2023-06-20T20:33:47.885Z,5.87
2023-06-20T20:36:54.402Z,8.93
2023-06-20T20:39:58.641Z,5.77
2023-06-20T20:43:01.476Z,11.50
2023-06-20T20:46:04.849Z,6.10
2023-06-20T20:49:07.710Z,6.70
2023-06-20T20:52:12.475Z,3.93
2023-06-20T20:55:15.831Z,8.90
2023-06-20T20:58:18.541Z,6.13
2023-06-20T21:01:21.433Z,7.40
2023-06-20T21:04:24.242Z,6.53
2023-06-20T21:07:28.396Z,6.40
2023-06-20T21:10:31.600Z,7.03
2023-06-20T21:13:34.470Z,9.30
2023-06-20T21:16:37.282Z,8.13
2023-06-20T21:19:40.039Z,7.90
2023-06-20T21:22:44.283Z,8.00
2023-06-20T21:25:49.644Z,8.73
2023-06-20T21:28:52.469Z,10.43
2023-06-20T21:31:58.294Z,7.50
2023-06-20T21:35:02.025Z,7.23
2023-06-20T21:38:06.244Z,7.67
2023-06-20T21:41:08.987Z,8.13
2023-06-20T21:44:11.718Z,9.97
2023-06-20T21:47:14.589Z,4.23
2023-06-20T21:50:24.341Z,7.57
2023-06-20T21:53:29.319Z,5.73
2023-06-20T21:56:32.106Z,5.70
2023-06-20T21:59:36.130Z,5.13
2023-06-20T22:02:39.054Z,8.67
2023-06-20T22:05:41.824Z,8.07
2023-06-20T22:08:45.900Z,6.93
2023-06-20T22:11:48.684Z,7.23
2023-06-20T22:14:53.055Z,7.70
2023-06-20T22:17:55.872Z,7.43
2023-06-20T22:20:58.724Z,7.57
2023-06-20T22:24:03.500Z,8.33
2023-06-20T22:27:06.796Z,8.37
2023-06-20T22:30:12.088Z,9.60
2023-06-20T22:33:14.828Z,10.70
2023-06-20T22:36:19.821Z,13.30
2023-06-20T22:39:24.405Z,12.07
2023-06-20T22:42:27.894Z,9.00
2023-06-20T22:45:30.639Z,9.80
2023-06-20T22:48:33.759Z,9.30
2023-06-20T22:51:36.755Z,8.47
2023-06-20T22:54:41.090Z,9.13
2023-06-20T22:57:43.820Z,9.93
2023-06-20T23:00:46.539Z,7.60
2023-06-20T23:03:49.840Z,8.13
2023-06-20T23:06:54.948Z,8.67
2023-06-20T23:09:59.031Z,9.90
2023-06-20T23:13:02.056Z,12.40
2023-06-20T23:16:05.040Z,9.37
2023-06-20T23:19:09.229Z,7.83
2023-06-20T23:22:12.003Z,10.47
2023-06-20T23:25:16.046Z,11.70
2023-06-20T23:28:19.658Z,9.60
2023-06-20T23:31:25.460Z,8.80
2023-06-20T23:34:30.653Z,9.37
2023-06-20T23:37:33.596Z,13.60
2023-06-20T23:40:37.628Z,10.80
2023-06-20T23:43:44.642Z,12.30
2023-06-20T23:46:47.850Z,9.40
2023-06-20T23:50:01.276Z,8.73
2023-06-20T23:53:04.446Z,10.17
2023-06-20T23:56:08.749Z,10.30
2023-06-20T23:59:11.975Z,12.50
